sensor_id;sensor_type;location;lat;lon;timestamp;pressure;altitude;pressure_sealevel;temperature;humidity
19811;BME280;10065;49.632;8.346;2023-02-20T00:00:44;101773.06;;;12.26;69.37
19811;BME280;10065;49.632;8.346;2023-02-20T00:03:13;101771.13;;;12.28;69.33
19811;BME280;10065;49.632;8.346;2023-02-20T00:05:41;101764.34;;;12.24;69.11
19811;BME280;10065;49.632;8.346;2023-02-20T00:08:11;101761.84;;;12.22;69.14
19811;BME280;10065;49.632;8.346;2023-02-20T00:10:38;101745.91;;;12.22;69.22
19811;BME280;10065;49.632;8.346;2023-02-20T00:13:06;101743.34;;;12.21;69.21
19811;BME280;10065;49.632;8.346;2023-02-20T00:15:34;101737.44;;;12.17;68.60
19811;BME280;10065;49.632;8.346;2023-02-20T00:18:02;101751.38;;;12.10;66.77
19811;BME280;10065;49.632;8.346;2023-02-20T00:20:29;101749.69;;;12.09;66.13
19811;BME280;10065;49.632;8.346;2023-02-20T00:22:58;101743.28;;;12.11;65.43
19811;BME280;10065;49.632;8.346;2023-02-20T00:25:27;101737.00;;;12.12;64.27
19811;BME280;10065;49.632;8.346;2023-02-20T00:27:55;101736.03;;;12.13;63.30
19811;BME280;10065;49.632;8.346;2023-02-20T00:30:23;101743.75;;;12.05;62.71
19811;BME280;10065;49.632;8.346;2023-02-20T00:32:53;101740.66;;;12.00;62.08
19811;BME280;10065;49.632;8.346;2023-02-20T00:35:22;101738.38;;;11.95;61.64
19811;BME280;10065;49.632;8.346;2023-02-20T00:37:50;101742.88;;;11.84;61.34
19811;BME280;10065;49.632;8.346;2023-02-20T00:40:20;101741.81;;;11.75;61.59
19811;BME280;10065;49.632;8.346;2023-02-20T00:42:49;101741.69;;;11.65;61.74
19811;BME280;10065;49.632;8.346;2023-02-20T00:45:17;101741.69;;;11.65;62.28
19811;BME280;10065;49.632;8.346;2023-02-20T00:47:45;101736.88;;;11.59;62.12
19811;BME280;10065;49.632;8.346;2023-02-20T00:50:14;101732.88;;;11.54;61.94
19811;BME280;10065;49.632;8.346;2023-02-20T00:52:42;101737.88;;;11.47;62.20
19811;BME280;10065;49.632;8.346;2023-02-20T00:55:10;101730.97;;;11.45;62.23
19811;BME280;10065;49.632;8.346;2023-02-20T00:57:39;101716.59;;;11.47;62.50
19811;BME280;10065;49.632;8.346;2023-02-20T01:00:23;101730.84;;;11.46;62.65
19811;BME280;10065;49.632;8.346;2023-02-20T01:02:51;101719.50;;;11.44;62.58
19811;BME280;10065;49.632;8.346;2023-02-20T01:05:19;101727.13;;;11.38;62.99
19811;BME280;10065;49.632;8.346;2023-02-20T01:07:46;101731.00;;;11.34;63.04
19811;BME280;10065;49.632;8.346;2023-02-20T01:10:14;101721.59;;;11.29;63.18
19811;BME280;10065;49.632;8.346;2023-02-20T01:12:42;101722.81;;;11.25;63.46
19811;BME280;10065;49.632;8.346;2023-02-20T01:15:13;101727.28;;;11.25;63.70
19811;BME280;10065;49.632;8.346;2023-02-20T01:17:41;101727.50;;;11.22;64.18
19811;BME280;10065;49.632;8.346;2023-02-20T01:20:09;101730.50;;;11.17;64.58
19811;BME280;10065;49.632;8.346;2023-02-20T01:22:37;101714.84;;;11.14;64.93
19811;BME280;10065;49.632;8.346;2023-02-20T01:25:05;101720.28;;;11.13;65.23
19811;BME280;10065;49.632;8.346;2023-02-20T01:27:33;101716.16;;;11.09;65.32
19811;BME280;10065;49.632;8.346;2023-02-20T01:30:01;101715.81;;;11.02;65.61
19811;BME280;10065;49.632;8.346;2023-02-20T01:32:30;101716.66;;;11.03;65.37
19811;BME280;10065;49.632;8.346;2023-02-20T01:34:58;101710.75;;;10.99;64.90
19811;BME280;10065;49.632;8.346;2023-02-20T01:37:25;101705.69;;;10.96;65.14
19811;BME280;10065;49.632;8.346;2023-02-20T01:39:53;101712.06;;;10.93;64.87
19811;BME280;10065;49.632;8.346;2023-02-20T01:42:23;101715.69;;;10.92;65.19
19811;BME280;10065;49.632;8.346;2023-02-20T01:44:51;101711.34;;;10.91;65.19
19811;BME280;10065;49.632;8.346;2023-02-20T01:47:21;101706.28;;;10.88;65.20
19811;BME280;10065;49.632;8.346;2023-02-20T01:49:53;101717.13;;;10.85;65.41
19811;BME280;10065;49.632;8.346;2023-02-20T01:52:25;101709.16;;;10.85;65.49
19811;BME280;10065;49.632;8.346;2023-02-20T01:54:57;101714.47;;;10.85;65.50
19811;BME280;10065;49.632;8.346;2023-02-20T01:57:27;101705.66;;;10.85;65.48
19811;BME280;10065;49.632;8.346;2023-02-20T02:00:00;101704.09;;;10.82;65.31
19811;BME280;10065;49.632;8.346;2023-02-20T02:02:31;101707.34;;;10.75;65.63
19811;BME280;10065;49.632;8.346;2023-02-20T02:05:06;101696.38;;;10.68;65.72
19811;BME280;10065;49.632;8.346;2023-02-20T02:07:37;101712.28;;;10.68;65.69
19811;BME280;10065;49.632;8.346;2023-02-20T02:10:07;101711.81;;;10.63;65.74
19811;BME280;10065;49.632;8.346;2023-02-20T02:12:36;101715.75;;;10.57;65.65
19811;BME280;10065;49.632;8.346;2023-02-20T02:15:12;101707.91;;;10.56;65.79
19811;BME280;10065;49.632;8.346;2023-02-20T02:17:58;101701.91;;;10.54;65.93
19811;BME280;10065;49.632;8.346;2023-02-20T02:21:01;101693.09;;;10.53;66.13
19811;BME280;10065;49.632;8.346;2023-02-20T02:26:57;101680.28;;;10.47;66.83
19811;BME280;10065;49.632;8.346;2023-02-20T02:29:53;101673.19;;;10.48;66.91
19811;BME280;10065;49.632;8.346;2023-02-20T02:38:25;101688.03;;;10.15;66.74
19811;BME280;10065;49.632;8.346;2023-02-20T02:41:04;101678.13;;;10.06;67.43
19811;BME280;10065;49.632;8.346;2023-02-20T02:43:40;101671.81;;;9.96;67.46
19811;BME280;10065;49.632;8.346;2023-02-20T02:46:15;101665.97;;;9.80;68.08
19811;BME280;10065;49.632;8.346;2023-02-20T02:48:49;101673.47;;;9.62;68.62
19811;BME280;10065;49.632;8.346;2023-02-20T02:51:22;101668.94;;;9.40;69.47
19811;BME280;10065;49.632;8.346;2023-02-20T02:54:09;101667.47;;;9.24;70.45
19811;BME280;10065;49.632;8.346;2023-02-20T02:56:39;101671.22;;;9.21;71.05
19811;BME280;10065;49.632;8.346;2023-02-20T02:59:09;101670.84;;;9.26;70.98
19811;BME280;10065;49.632;8.346;2023-02-20T03:01:41;101669.81;;;9.28;70.66
19811;BME280;10065;49.632;8.346;2023-02-20T03:04:12;101665.16;;;9.19;70.76
19811;BME280;10065;49.632;8.346;2023-02-20T03:06:50;101674.59;;;9.23;70.62
19811;BME280;10065;49.632;8.346;2023-02-20T03:09:23;101661.97;;;9.27;70.47
19811;BME280;10065;49.632;8.346;2023-02-20T03:11:53;101665.81;;;9.23;70.82
19811;BME280;10065;49.632;8.346;2023-02-20T03:14:25;101661.69;;;9.19;71.07
19811;BME280;10065;49.632;8.346;2023-02-20T03:17:14;101655.03;;;9.13;71.51
19811;BME280;10065;49.632;8.346;2023-02-20T03:19:46;101654.75;;;9.05;71.94
19811;BME280;10065;49.632;8.346;2023-02-20T03:22:18;101660.75;;;9.07;71.95
19811;BME280;10065;49.632;8.346;2023-02-20T03:24:50;101665.84;;;8.97;72.41
19811;BME280;10065;49.632;8.346;2023-02-20T03:27:26;101658.44;;;8.90;72.99
19811;BME280;10065;49.632;8.346;2023-02-20T03:29:57;101667.78;;;8.95;73.30
19811;BME280;10065;49.632;8.346;2023-02-20T03:32:28;101662.25;;;8.98;73.18
19811;BME280;10065;49.632;8.346;2023-02-20T03:35:16;101664.28;;;8.95;73.35
19811;BME280;10065;49.632;8.346;2023-02-20T03:38:05;101662.88;;;9.02;73.24
19811;BME280;10065;49.632;8.346;2023-02-20T03:40:54;101659.75;;;8.97;73.01
19811;BME280;10065;49.632;8.346;2023-02-20T03:43:41;101666.69;;;8.98;73.14
19811;BME280;10065;49.632;8.346;2023-02-20T03:46:12;101663.38;;;9.07;73.11
19811;BME280;10065;49.632;8.346;2023-02-20T03:48:50;101666.47;;;9.01;72.91
19811;BME280;10065;49.632;8.346;2023-02-20T03:51:20;101672.63;;;9.01;73.27
19811;BME280;10065;49.632;8.346;2023-02-20T03:54:06;101667.97;;;9.05;72.54
19811;BME280;10065;49.632;8.346;2023-02-20T03:56:40;101665.81;;;9.10;72.38
19811;BME280;10065;49.632;8.346;2023-02-20T03:59:11;101662.50;;;8.95;72.86
19811;BME280;10065;49.632;8.346;2023-02-20T04:01:42;101661.09;;;8.90;73.22
19811;BME280;10065;49.632;8.346;2023-02-20T04:04:13;101671.16;;;8.85;73.39
19811;BME280;10065;49.632;8.346;2023-02-20T04:06:44;101670.53;;;8.81;73.73
19811;BME280;10065;49.632;8.346;2023-02-20T04:09:16;101670.13;;;8.87;73.57
19811;BME280;10065;49.632;8.346;2023-02-20T04:11:50;101670.72;;;8.91;73.39
19811;BME280;10065;49.632;8.346;2023-02-20T04:14:20;101672.22;;;8.82;73.50
19811;BME280;10065;49.632;8.346;2023-02-20T04:16:51;101675.41;;;8.75;73.79
19811;BME280;10065;49.632;8.346;2023-02-20T04:19:22;101670.56;;;8.68;74.53
19811;BME280;10065;49.632;8.346;2023-02-20T04:21:51;101669.81;;;8.66;74.58
19811;BME280;10065;49.632;8.346;2023-02-20T04:24:24;101676.25;;;8.62;75.06
19811;BME280;10065;49.632;8.346;2023-02-20T04:26:56;101668.25;;;8.51;75.53
19811;BME280;10065;49.632;8.346;2023-02-20T04:29:24;101676.69;;;8.56;75.77
19811;BME280;10065;49.632;8.346;2023-02-20T04:31:52;101674.78;;;8.58;75.64
19811;BME280;10065;49.632;8.346;2023-02-20T04:34:20;101679.22;;;8.58;75.82
19811;BME280;10065;49.632;8.346;2023-02-20T04:36:47;101676.28;;;8.50;75.70
19811;BME280;10065;49.632;8.346;2023-02-20T04:39:15;101674.03;;;8.56;75.29
19811;BME280;10065;49.632;8.346;2023-02-20T04:41:43;101668.44;;;8.48;75.26
19811;BME280;10065;49.632;8.346;2023-02-20T04:44:12;101682.38;;;8.38;76.40
19811;BME280;10065;49.632;8.346;2023-02-20T04:47:00;101658.91;;;8.46;75.99
19811;BME280;10065;49.632;8.346;2023-02-20T04:49:28;101667.50;;;8.49;76.59
19811;BME280;10065;49.632;8.346;2023-02-20T04:51:55;101669.63;;;8.44;75.70
19811;BME280;10065;49.632;8.346;2023-02-20T04:54:23;101672.03;;;8.47;75.40
19811;BME280;10065;49.632;8.346;2023-02-20T04:56:51;101672.66;;;8.38;75.59
19811;BME280;10065;49.632;8.346;2023-02-20T04:59:20;101680.19;;;8.44;75.43
19811;BME280;10065;49.632;8.346;2023-02-20T05:01:48;101685.69;;;8.41;75.34
19811;BME280;10065;49.632;8.346;2023-02-20T05:04:19;101677.00;;;8.39;75.23
19811;BME280;10065;49.632;8.346;2023-02-20T05:06:49;101687.06;;;8.34;75.01
19811;BME280;10065;49.632;8.346;2023-02-20T05:09:17;101687.41;;;8.28;75.62
19811;BME280;10065;49.632;8.346;2023-02-20T05:11:45;101690.81;;;8.30;75.55
19811;BME280;10065;49.632;8.346;2023-02-20T05:14:13;101685.28;;;8.20;76.18
19811;BME280;10065;49.632;8.346;2023-02-20T05:16:42;101681.28;;;8.15;76.45
19811;BME280;10065;49.632;8.346;2023-02-20T05:19:13;101671.66;;;8.14;77.04
19811;BME280;10065;49.632;8.346;2023-02-20T05:21:41;101677.47;;;8.19;76.45
19811;BME280;10065;49.632;8.346;2023-02-20T05:24:26;101662.97;;;8.12;76.46
19811;BME280;10065;49.632;8.346;2023-02-20T05:26:55;101672.19;;;8.19;76.17
19811;BME280;10065;49.632;8.346;2023-02-20T05:29:23;101667.41;;;8.11;76.60
19811;BME280;10065;49.632;8.346;2023-02-20T05:31:52;101661.38;;;8.09;76.68
19811;BME280;10065;49.632;8.346;2023-02-20T05:34:20;101671.75;;;8.00;77.20
19811;BME280;10065;49.632;8.346;2023-02-20T05:36:48;101674.38;;;8.00;76.97
19811;BME280;10065;49.632;8.346;2023-02-20T05:39:16;101677.31;;;7.95;77.83
19811;BME280;10065;49.632;8.346;2023-02-20T05:41:43;101674.88;;;7.92;77.60
19811;BME280;10065;49.632;8.346;2023-02-20T05:44:11;101681.56;;;7.98;77.78
19811;BME280;10065;49.632;8.346;2023-02-20T05:46:39;101684.72;;;8.03;77.46
19811;BME280;10065;49.632;8.346;2023-02-20T05:49:10;101681.28;;;8.15;76.75
19811;BME280;10065;49.632;8.346;2023-02-20T05:51:37;101677.69;;;8.16;76.41
19811;BME280;10065;49.632;8.346;2023-02-20T05:54:05;101678.09;;;8.10;76.54
19811;BME280;10065;49.632;8.346;2023-02-20T05:56:33;101669.63;;;8.05;76.56
19811;BME280;10065;49.632;8.346;2023-02-20T05:59:01;101675.75;;;8.05;76.93
19811;BME280;10065;49.632;8.346;2023-02-20T06:01:30;101676.00;;;8.15;76.55
19811;BME280;10065;49.632;8.346;2023-02-20T06:03:58;101668.81;;;8.17;76.16
19811;BME280;10065;49.632;8.346;2023-02-20T06:06:32;101663.53;;;8.17;75.80
19811;BME280;10065;49.632;8.346;2023-02-20T06:09:00;101666.66;;;8.09;75.50
19811;BME280;10065;49.632;8.346;2023-02-20T06:11:27;101659.25;;;8.02;76.04
19811;BME280;10065;49.632;8.346;2023-02-20T06:13:55;101661.50;;;8.08;76.00
19811;BME280;10065;49.632;8.346;2023-02-20T06:16:24;101662.47;;;8.07;76.12
19811;BME280;10065;49.632;8.346;2023-02-20T06:18:53;101660.97;;;8.03;75.86
19811;BME280;10065;49.632;8.346;2023-02-20T06:21:21;101667.28;;;7.87;76.45
19811;BME280;10065;49.632;8.346;2023-02-20T06:23:52;101661.75;;;7.78;77.46
19811;BME280;10065;49.632;8.346;2023-02-20T06:26:23;101664.09;;;7.82;77.50
19811;BME280;10065;49.632;8.346;2023-02-20T06:28:51;101662.59;;;7.78;77.85
19811;BME280;10065;49.632;8.346;2023-02-20T06:31:25;101660.94;;;7.90;77.75
19811;BME280;10065;49.632;8.346;2023-02-20T06:33:53;101662.41;;;7.81;77.81
19811;BME280;10065;49.632;8.346;2023-02-20T06:36:23;101666.63;;;7.84;77.98
19811;BME280;10065;49.632;8.346;2023-02-20T06:38:53;101662.09;;;7.86;77.82
19811;BME280;10065;49.632;8.346;2023-02-20T06:41:23;101660.09;;;7.89;77.55
19811;BME280;10065;49.632;8.346;2023-02-20T06:43:51;101656.69;;;7.87;77.52
19811;BME280;10065;49.632;8.346;2023-02-20T06:46:19;101658.50;;;7.87;77.37
19811;BME280;10065;49.632;8.346;2023-02-20T06:48:49;101656.09;;;7.97;76.97
19811;BME280;10065;49.632;8.346;2023-02-20T06:51:32;101653.75;;;7.92;76.79
19811;BME280;10065;49.632;8.346;2023-02-20T06:54:00;101657.13;;;7.94;76.62
19811;BME280;10065;49.632;8.346;2023-02-20T06:56:30;101654.91;;;7.88;76.97
19811;BME280;10065;49.632;8.346;2023-02-20T06:58:58;101659.75;;;7.81;77.61
19811;BME280;10065;49.632;8.346;2023-02-20T07:01:28;101662.50;;;7.92;77.52
19811;BME280;10065;49.632;8.346;2023-02-20T07:03:57;101674.47;;;7.98;76.47
19811;BME280;10065;49.632;8.346;2023-02-20T07:06:29;101679.63;;;7.87;76.70
19811;BME280;10065;49.632;8.346;2023-02-20T07:08:57;101687.09;;;7.80;77.17
19811;BME280;10065;49.632;8.346;2023-02-20T07:11:24;101690.50;;;7.82;77.82
19811;BME280;10065;49.632;8.346;2023-02-20T07:13:52;101694.34;;;7.91;77.41
19811;BME280;10065;49.632;8.346;2023-02-20T07:16:20;101692.13;;;7.98;77.35
19811;BME280;10065;49.632;8.346;2023-02-20T07:18:48;101691.38;;;7.96;77.33
19811;BME280;10065;49.632;8.346;2023-02-20T07:21:15;101690.09;;;7.88;77.88
19811;BME280;10065;49.632;8.346;2023-02-20T07:23:44;101691.03;;;7.87;77.96
19811;BME280;10065;49.632;8.346;2023-02-20T07:26:16;101690.94;;;7.89;78.36
19811;BME280;10065;49.632;8.346;2023-02-20T07:28:44;101693.50;;;7.90;78.62
19811;BME280;10065;49.632;8.346;2023-02-20T07:31:12;101694.53;;;8.01;78.56
19811;BME280;10065;49.632;8.346;2023-02-20T07:33:40;101699.44;;;8.19;77.87
19811;BME280;10065;49.632;8.346;2023-02-20T07:36:09;101694.22;;;8.32;77.05
19811;BME280;10065;49.632;8.346;2023-02-20T07:38:37;101689.47;;;8.37;76.90
19811;BME280;10065;49.632;8.346;2023-02-20T07:41:06;101681.13;;;8.43;76.71
19811;BME280;10065;49.632;8.346;2023-02-20T07:43:34;101684.31;;;8.48;76.39
19811;BME280;10065;49.632;8.346;2023-02-20T07:46:02;101676.16;;;8.51;76.51
19811;BME280;10065;49.632;8.346;2023-02-20T07:48:30;101678.81;;;8.51;76.38
19811;BME280;10065;49.632;8.346;2023-02-20T07:50:59;101682.59;;;8.47;77.23
19811;BME280;10065;49.632;8.346;2023-02-20T07:53:27;101684.09;;;8.51;77.11
19811;BME280;10065;49.632;8.346;2023-02-20T07:55:55;101681.78;;;8.59;77.00
19811;BME280;10065;49.632;8.346;2023-02-20T07:58:24;101670.97;;;8.62;77.12
19811;BME280;10065;49.632;8.346;2023-02-20T08:00:52;101673.50;;;8.77;76.76
19811;BME280;10065;49.632;8.346;2023-02-20T08:03:20;101671.91;;;8.87;76.63
19811;BME280;10065;49.632;8.346;2023-02-20T08:05:47;101674.63;;;8.98;76.45
19811;BME280;10065;49.632;8.346;2023-02-20T08:08:15;101671.56;;;9.04;76.18
19811;BME280;10065;49.632;8.346;2023-02-20T08:10:43;101673.63;;;9.24;75.30
19811;BME280;10065;49.632;8.346;2023-02-20T08:13:11;101678.22;;;9.46;74.38
19811;BME280;10065;49.632;8.346;2023-02-20T08:15:40;101666.09;;;9.55;74.12
19811;BME280;10065;49.632;8.346;2023-02-20T08:18:10;101659.00;;;9.79;73.27
19811;BME280;10065;49.632;8.346;2023-02-20T08:20:49;101660.63;;;9.93;73.21
19811;BME280;10065;49.632;8.346;2023-02-20T08:23:19;101660.41;;;10.07;72.67
19811;BME280;10065;49.632;8.346;2023-02-20T08:25:48;101651.94;;;10.26;72.05
19811;BME280;10065;49.632;8.346;2023-02-20T08:28:15;101647.38;;;10.39;71.47
19811;BME280;10065;49.632;8.346;2023-02-20T08:30:45;101653.91;;;10.46;71.72
19811;BME280;10065;49.632;8.346;2023-02-20T08:33:13;101644.53;;;10.53;71.37
19811;BME280;10065;49.632;8.346;2023-02-20T08:35:41;101642.31;;;10.47;72.19
19811;BME280;10065;49.632;8.346;2023-02-20T08:38:23;101641.63;;;10.67;71.94
19811;BME280;10065;49.632;8.346;2023-02-20T08:40:51;101638.97;;;10.78;71.06
19811;BME280;10065;49.632;8.346;2023-02-20T08:43:18;101635.72;;;10.86;71.34
19811;BME280;10065;49.632;8.346;2023-02-20T08:45:48;101624.81;;;11.00;70.39
19811;BME280;10065;49.632;8.346;2023-02-20T08:48:16;101625.31;;;11.05;70.37
19811;BME280;10065;49.632;8.346;2023-02-20T08:50:44;101613.34;;;11.11;70.55
19811;BME280;10065;49.632;8.346;2023-02-20T08:53:13;101622.03;;;11.13;70.63
19811;BME280;10065;49.632;8.346;2023-02-20T08:55:41;101621.91;;;11.25;70.26
19811;BME280;10065;49.632;8.346;2023-02-20T08:58:09;101623.44;;;11.39;69.51
19811;BME280;10065;49.632;8.346;2023-02-20T09:00:37;101613.75;;;11.49;69.55
19811;BME280;10065;49.632;8.346;2023-02-20T09:03:06;101611.59;;;11.75;68.61
19811;BME280;10065;49.632;8.346;2023-02-20T09:05:34;101610.72;;;11.86;68.15
19811;BME280;10065;49.632;8.346;2023-02-20T09:08:04;101602.47;;;12.10;67.64
19811;BME280;10065;49.632;8.346;2023-02-20T09:10:32;101603.09;;;12.74;65.28
19811;BME280;10065;49.632;8.346;2023-02-20T09:13:00;101584.66;;;12.92;63.97
19811;BME280;10065;49.632;8.346;2023-02-20T09:15:28;101596.66;;;13.16;63.33
19811;BME280;10065;49.632;8.346;2023-02-20T09:17:57;101586.16;;;13.63;61.79
19811;BME280;10065;49.632;8.346;2023-02-20T09:20:26;101590.94;;;13.69;60.86
19811;BME280;10065;49.632;8.346;2023-02-20T09:22:56;101598.22;;;13.67;60.31
19811;BME280;10065;49.632;8.346;2023-02-20T09:25:25;101585.28;;;13.72;59.73
19811;BME280;10065;49.632;8.346;2023-02-20T09:27:53;101592.88;;;13.67;59.39
19811;BME280;10065;49.632;8.346;2023-02-20T09:30:21;101578.97;;;13.92;59.36
19811;BME280;10065;49.632;8.346;2023-02-20T09:32:50;101585.44;;;14.46;57.53
19811;BME280;10065;49.632;8.346;2023-02-20T09:35:20;101584.19;;;15.23;54.99
19811;BME280;10065;49.632;8.346;2023-02-20T09:37:51;101572.72;;;15.84;52.31
19811;BME280;10065;49.632;8.346;2023-02-20T09:40:21;101572.34;;;16.56;50.61
19811;BME280;10065;49.632;8.346;2023-02-20T09:43:01;101567.50;;;18.56;46.54
19811;BME280;10065;49.632;8.346;2023-02-20T09:45:37;101564.59;;;21.77;39.43
19811;BME280;10065;49.632;8.346;2023-02-20T09:48:17;101556.09;;;24.10;34.38
19811;BME280;10065;49.632;8.346;2023-02-20T09:50:52;101549.94;;;25.50;32.25
19811;BME280;10065;49.632;8.346;2023-02-20T09:53:26;101554.28;;;25.82;31.02
19811;BME280;10065;49.632;8.346;2023-02-20T09:56:00;101550.19;;;26.16;31.00
19811;BME280;10065;49.632;8.346;2023-02-20T09:58:39;101549.72;;;27.52;29.00
19811;BME280;10065;49.632;8.346;2023-02-20T10:01:10;101543.16;;;28.70;27.41
19811;BME280;10065;49.632;8.346;2023-02-20T10:03:51;101535.63;;;29.79;26.37
19811;BME280;10065;49.632;8.346;2023-02-20T10:06:22;101528.91;;;29.86;26.52
19811;BME280;10065;49.632;8.346;2023-02-20T10:08:53;101526.78;;;29.72;26.65
19811;BME280;10065;49.632;8.346;2023-02-20T10:11:32;101519.19;;;30.12;25.77
19811;BME280;10065;49.632;8.346;2023-02-20T10:17:20;101520.28;;;28.71;27.05
19811;BME280;10065;49.632;8.346;2023-02-20T10:19:52;101526.69;;;27.37;28.84
19811;BME280;10065;49.632;8.346;2023-02-20T10:22:25;101518.28;;;26.30;29.84
19811;BME280;10065;49.632;8.346;2023-02-20T10:25:07;101510.22;;;27.61;28.01
19811;BME280;10065;49.632;8.346;2023-02-20T10:27:44;101521.25;;;27.25;28.05
19811;BME280;10065;49.632;8.346;2023-02-20T10:30:22;101520.47;;;27.18;27.88
19811;BME280;10065;49.632;8.346;2023-02-20T10:32:55;101522.75;;;26.43;28.83
19811;BME280;10065;49.632;8.346;2023-02-20T10:35:25;101517.75;;;25.97;29.68
19811;BME280;10065;49.632;8.346;2023-02-20T10:38:01;101518.47;;;25.67;30.25
19811;BME280;10065;49.632;8.346;2023-02-20T10:40:35;101514.25;;;25.15;30.53
19811;BME280;10065;49.632;8.346;2023-02-20T10:43:12;101509.50;;;25.35;30.60
19811;BME280;10065;49.632;8.346;2023-02-20T10:45:50;101509.81;;;26.20;29.31
19811;BME280;10065;49.632;8.346;2023-02-20T10:48:22;101508.19;;;27.27;26.97
19811;BME280;10065;49.632;8.346;2023-02-20T10:50:58;101507.19;;;26.98;27.99
19811;BME280;10065;49.632;8.346;2023-02-20T10:53:33;101506.13;;;27.41;27.15
19811;BME280;10065;49.632;8.346;2023-02-20T10:56:08;101505.72;;;27.25;27.78
19811;BME280;10065;49.632;8.346;2023-02-20T10:58:39;101505.13;;;27.77;26.88
19811;BME280;10065;49.632;8.346;2023-02-20T11:01:12;101505.09;;;26.09;28.22
19811;BME280;10065;49.632;8.346;2023-02-20T11:03:46;101507.28;;;24.88;29.91
19811;BME280;10065;49.632;8.346;2023-02-20T11:06:16;101510.13;;;23.64;31.99
19811;BME280;10065;49.632;8.346;2023-02-20T11:08:45;101518.16;;;22.57;33.03
19811;BME280;10065;49.632;8.346;2023-02-20T11:11:36;101512.91;;;22.08;34.05
19811;BME280;10065;49.632;8.346;2023-02-20T11:14:10;101502.69;;;22.38;33.87
19811;BME280;10065;49.632;8.346;2023-02-20T11:16:43;101509.34;;;22.01;33.96
19811;BME280;10065;49.632;8.346;2023-02-20T11:19:16;101495.38;;;22.79;33.61
19811;BME280;10065;49.632;8.346;2023-02-20T11:21:48;101502.31;;;25.23;29.98
19811;BME280;10065;49.632;8.346;2023-02-20T11:24:18;101489.84;;;27.87;26.98
19811;BME280;10065;49.632;8.346;2023-02-20T11:26:48;101480.13;;;27.68;26.72
19811;BME280;10065;49.632;8.346;2023-02-20T11:29:19;101488.72;;;26.15;29.04
19811;BME280;10065;49.632;8.346;2023-02-20T11:31:48;101473.66;;;25.27;29.94
19811;BME280;10065;49.632;8.346;2023-02-20T11:34:19;101485.16;;;24.97;30.13
19811;BME280;10065;49.632;8.346;2023-02-20T11:36:48;101483.84;;;25.56;29.57
19811;BME280;10065;49.632;8.346;2023-02-20T11:39:23;101466.81;;;25.92;29.30
19811;BME280;10065;49.632;8.346;2023-02-20T11:42:06;101468.25;;;26.13;29.23
19811;BME280;10065;49.632;8.346;2023-02-20T11:44:37;101465.59;;;26.61;28.37
19811;BME280;10065;49.632;8.346;2023-02-20T11:47:24;101457.66;;;28.13;26.60
19811;BME280;10065;49.632;8.346;2023-02-20T11:50:12;101451.78;;;30.23;24.58
19811;BME280;10065;49.632;8.346;2023-02-20T11:52:56;101436.38;;;31.56;23.01
19811;BME280;10065;49.632;8.346;2023-02-20T11:55:26;101436.91;;;31.58;22.45
19811;BME280;10065;49.632;8.346;2023-02-20T11:57:56;101438.59;;;30.42;22.87
19811;BME280;10065;49.632;8.346;2023-02-20T12:00:25;101433.19;;;29.31;24.15
19811;BME280;10065;49.632;8.346;2023-02-20T12:02:55;101449.06;;;28.72;24.05
19811;BME280;10065;49.632;8.346;2023-02-20T12:05:36;101445.25;;;27.82;25.09
19811;BME280;10065;49.632;8.346;2023-02-20T12:08:23;101436.56;;;28.20;25.22
19811;BME280;10065;49.632;8.346;2023-02-20T12:10:56;101430.25;;;28.59;24.45
19811;BME280;10065;49.632;8.346;2023-02-20T12:13:27;101401.81;;;28.84;23.73
19811;BME280;10065;49.632;8.346;2023-02-20T12:16:01;101408.53;;;29.26;24.19
19811;BME280;10065;49.632;8.346;2023-02-20T12:18:51;101398.25;;;30.10;22.89
19811;BME280;10065;49.632;8.346;2023-02-20T12:21:26;101394.69;;;30.32;22.51
19811;BME280;10065;49.632;8.346;2023-02-20T12:24:24;101398.53;;;28.70;24.56
19811;BME280;10065;49.632;8.346;2023-02-20T12:26:55;101397.13;;;26.94;25.85
19811;BME280;10065;49.632;8.346;2023-02-20T12:29:35;101397.78;;;25.07;28.24
19811;BME280;10065;49.632;8.346;2023-02-20T12:32:21;101402.22;;;23.68;30.21
19811;BME280;10065;49.632;8.346;2023-02-20T12:35:03;101401.59;;;23.06;31.01
19811;BME280;10065;49.632;8.346;2023-02-20T12:37:41;101393.50;;;23.13;30.38
19811;BME280;10065;49.632;8.346;2023-02-20T12:40:35;101378.91;;;25.19;28.59
19811;BME280;10065;49.632;8.346;2023-02-20T12:43:13;101383.41;;;24.75;27.76
19811;BME280;10065;49.632;8.346;2023-02-20T12:45:51;101377.94;;;25.56;26.81
19811;BME280;10065;49.632;8.346;2023-02-20T12:48:30;101378.72;;;24.26;27.79
19811;BME280;10065;49.632;8.346;2023-02-20T12:51:14;101376.13;;;22.61;30.29
19811;BME280;10065;49.632;8.346;2023-02-20T12:53:55;101368.06;;;22.00;31.87
19811;BME280;10065;49.632;8.346;2023-02-20T12:56:40;101365.63;;;22.99;31.04
19811;BME280;10065;49.632;8.346;2023-02-20T12:59:24;101362.94;;;24.03;29.26
19811;BME280;10065;49.632;8.346;2023-02-20T13:01:54;101360.41;;;24.08;29.29
19811;BME280;10065;49.632;8.346;2023-02-20T13:04:33;101362.13;;;23.96;29.56
19811;BME280;10065;49.632;8.346;2023-02-20T13:07:05;101358.38;;;23.97;29.84
19811;BME280;10065;49.632;8.346;2023-02-20T13:09:41;101345.88;;;23.96;30.16
19811;BME280;10065;49.632;8.346;2023-02-20T13:12:12;101363.03;;;23.77;30.33
19811;BME280;10065;49.632;8.346;2023-02-20T13:14:54;101348.72;;;23.56;30.01
19811;BME280;10065;49.632;8.346;2023-02-20T13:17:31;101343.94;;;23.52;30.91
19811;BME280;10065;49.632;8.346;2023-02-20T13:20:12;101338.13;;;23.22;30.91
19811;BME280;10065;49.632;8.346;2023-02-20T13:22:40;101332.94;;;23.14;31.67
19811;BME280;10065;49.632;8.346;2023-02-20T13:25:30;101331.06;;;22.68;32.07
19811;BME280;10065;49.632;8.346;2023-02-20T13:27:59;101331.44;;;22.65;32.06
19811;BME280;10065;49.632;8.346;2023-02-20T13:30:27;101326.78;;;22.20;32.87
19811;BME280;10065;49.632;8.346;2023-02-20T13:35:51;101303.78;;;21.42;34.35